• Join FlightAware (Why Join?)
  • Login
  • US Flag 
11:56AM EDT


 

Airport Tracker/Info


-or-


 

Live Flight TrackerFlight Track Log ✈ UCA4831 ✈ 25-Apr-2012 ✈ KROC - KEWR

Flight Track Log - Related Links

Times and Time Zones

All times are in EDT time to prevent confusion due to time zone crossing. See the UCA4831 flight status page for this flight to view local times or setup timezone preferences in your user account.

Time Position Orientation Groundspeed Altitude Reporting Facility
EDT Latitude Longitude Course Direction KTS MPH feet Rate Location/Type
10:42AM 43.1200 -77.6878 164° South 100 115 1,200  Level Cleveland Center
10:43AM 43.0822 -77.6725 115° Southeast 178 205 2,600 1,320 Climbing Cleveland Center
10:45AM 43.0392 -77.5436 120° Southeast 201 231 5,300 1,380 Climbing Cleveland Center
10:46AM 43.0083 -77.4714 116° Southeast 208 239 6,600 1,200 Climbing Cleveland Center
10:47AM 42.9833 -77.4017 118° Southeast 215 247 7,800 1,140 Climbing Cleveland Center
10:48AM 42.9519 -77.3208 119° Southeast 231 266 8,900 1,140 Climbing Cleveland Center
10:49AM 42.9183 -77.2378 118° Southeast 237 273 10,100 1,200 Climbing Cleveland Center
10:51AM 42.8553 -77.0733 118° Southeast 254 292 12,300 1,020 Climbing New York Center
10:52AM 42.8222 -76.9881 121° Southeast 254 292 13,000 300 Climbing New York Center
10:53AM 42.7814 -76.8939 122° Southeast 270 311 13,000  Level New York Center
10:54AM 42.7364 -76.7964 124° Southeast 290 334 13,000  Level New York Center
10:55AM 42.7108 -76.7442 120° Southeast 305 351 13,000  Level Boston Center
10:56AM 42.6706 -76.6481 122° Southeast 318 366 13,000  Level Boston Center
10:57AM 42.6281 -76.5550 121° Southeast 305 351 13,000  Level Boston Center
10:58AM 42.5856 -76.4592 120° Southeast 305 351 13,000  Level Boston Center
10:59AM 42.5453 -76.3661 122° Southeast 295 339 13,000  Level Boston Center
11:00AM 42.5025 -76.2733 122° Southeast 252 290 13,000  Level Boston Center
11:01AM 42.4636 -76.1892 122° Southeast 266 306 13,000  Level Boston Center
11:02AM 42.4228 -76.0997 122° Southeast 280 322 13,000  Level Boston Center
11:03AM 42.3817 -76.0100 121° Southeast 286 329 13,000  Level Boston Center
11:04AM 42.3389 -75.9122 124° Southeast 286 329 13,000  Level Boston Center
11:05AM 42.2978 -75.8283 122° Southeast 281 323 13,000  Level Boston Center
11:06AM 42.2567 -75.7392 120° Southeast 281 323 13,000  Level Boston Center
11:07AM 42.2156 -75.6417 124° Southeast 286 329 13,000  Level Boston Center
11:08AM 42.1722 -75.5553 121° Southeast 286 329 13,000  Level Boston Center
11:09AM 42.1308 -75.4636 122° Southeast 281 323 13,000  Level Boston Center
11:10AM 42.0875 -75.3692 122° Southeast 286 329 13,000  Level Boston Center
11:11AM 42.0478 -75.2836 114° Southeast 286 329 13,000  Level Boston Center
11:12AM 42.0131 -75.1786 119° Southeast 291 335 13,000  Level Boston Center
11:13AM 41.9697 -75.0733 120° Southeast 297 342 13,000 -120 Level Boston Center
11:14AM 41.9300 -74.9825 134° Southeast 286 329 12,800 -660 Descending Boston Center
11:15AM 41.8733 -74.9047 132° Southeast 286 329 11,700 -1,200 Descending Boston Center
11:16AM 41.8189 -74.8247 134° Southeast 286 329 10,400 -1,200 Descending Boston Center
11:17AM 41.7642 -74.7475 146° Southeast 292 336 9,300 -1,140 Descending Boston Center
11:18AM 41.7028 -74.6925 165° South 280 322 8,200 -1,020 Descending Boston Center
11:19AM 41.6344 -74.6678 168° South 257 296 7,300 -1,020 Descending Boston Center
11:20AM 41.5681 -74.6489 164° South 252 290 6,200 -660 Descending Boston Center
11:21AM 41.5019 -74.6242 164° South 252 290 6,000 -120 Descending Boston Center
11:22AM 41.4378 -74.6000 180° South 247 284 6,000  Level Boston Center
11:23AM 41.3731 -74.6006 199° South 239 275 6,000  Level Boston Center
11:24AM 41.3000 -74.6333 194° South 229 264 6,000  Level New York TRACON
11:25AM 41.2500 -74.6500 143° Southeast 231 266 6,000  Level New York TRACON
11:26AM 41.2000 -74.6000 129° Southeast 254 292 6,000  Level New York TRACON
11:27AM 41.1500 -74.5167 124° Southeast 251 289 6,000 -60 Level New York TRACON
11:28AM 41.1167 -74.4500 135° Southeast 249 287 5,900 -480 Descending New York TRACON
11:29AM 41.0667 -74.3833 135° Southeast 254 292 5,100 -660 Descending New York TRACON
11:30AM 41.0167 -74.3167 135° Southeast 246 283 4,600 -600 Descending New York TRACON
11:31AM 40.9667 -74.2500 123° Southeast 240 276 4,000 -300 Descending New York TRACON
11:32AM 40.9333 -74.1833 135° Southeast 231 266 4,000 -120 Level New York TRACON
11:33AM 40.8833 -74.1167 153° Southeast 226 260 3,800 -600 Descending New York TRACON
11:34AM 40.8333 -74.0833 201° Southwest 216 249 2,800 -840 Descending New York TRACON
11:35AM 40.8000 -74.1000 207° Southwest 193 222 2,200 -900 Descending New York TRACON
11:36AM 40.7500 -74.1333 201° Southwest 190 219 1,100 -900 Descending New York TRACON
11:37AM 40.7167 -74.1500 201° Southwest 124 143 400 -720 Descending New York TRACON